Time;durP1;ratioP1;P1;durP2;ratioP2;P2;SDS_P1;SDS_P2;PMS_P1;PMS_P2;Temp;Humidity;BMP_temperature;BMP_pressure;BME280_temperature;BME280_humidity;BME280_pressure;Samples;Min_cycle;Max_cycle;Signal;HPM_P1;HPM_P2
2022/04/24 00:03:43;;;;;;;6.43;5.27;;;;;;;;;;4884499;29;20562;-81
2022/04/24 00:06:12;;;;;;;6.13;5.53;;;9.40;1.00;;;;;;4890155;29;20457;-80
2022/04/24 00:08:44;;;;;;;7.23;5.33;;;9.40;1.00;;;;;;5001288;28;20481;-81
2022/04/24 00:11:11;;;;;;;7.00;5.73;;;;;;;;;;5040914;28;20982;-81
2022/04/24 00:13:41;;;;;;;6.73;6.13;;;;;;;;;;5042908;28;20447;-81
2022/04/24 00:16:12;;;;;;;7.40;5.17;;;;;;;;;;5135392;28;20441;-81
2022/04/24 00:18:58;;;;;;;6.87;6.00;;;9.30;1.00;;;;;;5124333;28;20771;-81
2022/04/24 00:21:28;;;;;;;7.47;5.63;;;9.20;1.00;;;;;;5123523;28;20493;-81
2022/04/24 00:24:05;;;;;;;6.20;4.80;;;9.20;9.50;;;;;;5123671;28;20790;-81
2022/04/24 00:26:32;;;;;;;5.70;5.20;;;;;;;;;;5130049;28;20417;-80
2022/04/24 00:29:07;;;;;;;6.80;5.80;;;9.20;16.60;;;;;;5133269;28;20410;-81
2022/04/24 00:31:35;;;;;;;8.37;5.87;;;;;;;;;;5125889;28;20483;-81
2022/04/24 00:34:02;;;;;;;5.63;5.00;;;9.10;83.10;;;;;;5135304;28;20481;-81
2022/04/24 00:36:31;;;;;;;7.03;6.03;;;9.90;99.90;;;;;;5137019;28;20481;-81
2022/04/24 00:38:58;;;;;;;5.57;5.13;;;;;;;;;;5136739;28;20439;-81
2022/04/24 00:41:27;;;;;;;5.60;4.77;;;9.00;99.90;;;;;;5132080;28;20450;-81
2022/04/24 00:43:54;;;;;;;7.80;7.00;;;;;;;;;;5134831;28;20435;-81
2022/04/24 00:46:37;;;;;;;11.90;6.33;;;9.00;99.90;;;;;;5133802;28;21005;-81
2022/04/24 00:49:03;;;;;;;7.53;5.80;;;9.00;99.90;;;;;;5132457;28;20421;-81
2022/04/24 00:51:30;;;;;;;8.23;5.60;;;8.90;99.90;;;;;;5134338;28;20459;-80
2022/04/24 00:53:57;;;;;;;7.17;5.47;;;8.90;99.90;;;;;;5141058;28;20442;-80
2022/04/24 00:56:30;;;;;;;9.40;6.27;;;8.90;99.90;;;;;;5140901;28;20454;-80
2022/04/24 00:58:58;;;;;;;6.27;4.90;;;9.00;99.90;;;;;;5140418;28;20416;-80
2022/04/24 01:01:24;;;;;;;9.53;6.17;;;8.80;99.90;;;;;;5139495;28;20467;-79
2022/04/24 01:03:52;;;;;;;11.00;5.87;;;8.80;99.90;;;;;;5140450;28;20443;-81
2022/04/24 01:06:19;;;;;;;7.07;6.30;;;8.80;99.90;;;;;;5127344;28;20512;-80
2022/04/24 01:08:45;;;;;;;6.73;6.03;;;8.80;1.00;;;;;;5126636;28;20414;-81
2022/04/24 01:11:13;;;;;;;8.37;6.30;;;8.70;1.00;;;;;;5121997;28;20488;-81
2022/04/24 01:13:40;;;;;;;6.90;6.20;;;8.60;1.00;;;;;;5122227;28;20455;-82
2022/04/24 01:16:08;;;;;;;6.87;5.90;;;8.60;1.00;;;;;;5121292;28;20450;-81
2022/04/24 01:18:34;;;;;;;6.20;5.70;;;8.40;99.90;;;;;;5121884;28;20447;-81
2022/04/24 01:21:08;;;;;;;6.30;5.50;;;8.50;99.90;;;;;;5123134;28;20551;-81
2022/04/24 01:23:35;;;;;;;7.00;5.47;;;8.50;99.90;;;;;;5132282;28;20413;-81
2022/04/24 01:26:01;;;;;;;6.77;5.33;;;8.40;1.00;;;;;;5129078;28;20457;-81
2022/04/24 01:28:28;;;;;;;7.70;6.63;;;8.40;1.00;;;;;;5132547;28;20449;-81
2022/04/24 01:30:54;;;;;;;9.80;6.20;;;8.40;99.90;;;;;;5132014;28;20484;-81
2022/04/24 01:33:21;;;;;;;9.00;6.33;;;8.30;99.90;;;;;;5130294;28;20454;-81
2022/04/24 01:35:47;;;;;;;7.03;5.80;;;8.30;1.00;;;;;;5121426;28;20456;-81
2022/04/24 01:38:15;;;;;;;7.17;6.53;;;8.40;99.90;;;;;;5120421;28;20478;-81
2022/04/24 01:40:42;;;;;;;8.50;6.97;;;8.50;1.00;;;;;;5120700;28;20453;-80
2022/04/24 01:43:09;;;;;;;7.83;6.63;;;8.20;99.90;;;;;;5121099;28;20926;-80
2022/04/24 01:45:35;;;;;;;6.90;6.20;;;8.20;1.00;;;;;;5120681;28;20413;-81
2022/04/24 01:48:02;;;;;;;9.63;6.30;;;8.20;1.00;;;;;;5126775;28;20446;-81
2022/04/24 01:50:28;;;;;;;8.80;6.43;;;8.10;1.00;;;;;;5123814;28;20757;-80
2022/04/24 01:52:56;;;;;;;9.50;6.40;;;8.10;1.00;;;;;;5124265;28;20859;-81
2022/04/24 01:55:24;;;;;;;6.97;5.43;;;8.10;1.00;;;;;;5124150;28;20447;-81
2022/04/24 01:57:51;;;;;;;8.27;7.00;;;8.10;99.90;;;;;;5124527;28;20441;-81
2022/04/24 02:00:18;;;;;;;6.17;5.67;;;8.10;99.90;;;;;;5124491;28;20464;-81
2022/04/24 02:02:46;;;;;;;7.90;5.80;;;8.10;99.90;;;;;;5127158;28;20444;-80
2022/04/24 02:05:13;;;;;;;6.27;5.67;;;8.00;1.00;;;;;;5133549;28;20428;-80
2022/04/24 02:07:39;;;;;;;8.13;7.17;;;8.00;1.00;;;;;;5133903;28;20434;-80
2022/04/24 02:10:07;;;;;;;9.90;6.00;;;8.00;1.00;;;;;;5133678;28;20443;-80
2022/04/24 02:12:39;;;;;;;7.87;6.70;;;7.90;1.00;;;;;;5123378;28;20467;-81
2022/04/24 02:15:07;;;;;;;6.87;6.17;;;7.90;99.90;;;;;;5123876;28;20783;-80
2022/04/24 02:17:34;;;;;;;11.10;7.00;;;7.90;99.90;;;;;;5122986;28;20475;-80
2022/04/24 02:20:00;;;;;;;13.10;6.73;;;7.90;99.90;;;;;;5105487;28;22403;-80
2022/04/24 02:22:32;;;;;;;9.70;6.70;;;7.90;99.90;;;;;;5123627;28;20492;-81
2022/04/24 02:24:59;;;;;;;11.67;6.80;;;7.80;99.90;;;;;;5118626;28;20188;-78
2022/04/24 02:27:25;;;;;;;8.03;5.70;;;7.80;99.90;;;;;;5116431;28;20414;-78
2022/04/24 02:29:53;;;;;;;8.27;5.87;;;7.80;99.90;;;;;;5115772;28;20502;-79
2022/04/24 02:32:20;;;;;;;6.83;6.20;;;7.80;99.90;;;;;;5116893;28;20487;-79
2022/04/24 02:34:46;;;;;;;10.13;5.80;;;7.70;1.00;;;;;;5115348;28;20423;-78
2022/04/24 02:37:13;;;;;;;7.77;6.57;;;7.90;1.00;;;;;;5115761;28;20478;-78
2022/04/24 02:39:39;;;;;;;6.60;6.00;;;7.70;1.00;;;;;;5115987;28;20444;-79
2022/04/24 02:42:06;;;;;;;7.65;6.35;;;7.70;1.00;;;;;;5115505;28;20460;-79
2022/04/24 02:44:33;;;;;;;7.70;6.03;;;7.70;1.00;;;;;;5115692;28;20700;-78
2022/04/24 02:47:01;;;;;;;12.50;5.70;;;7.60;1.00;;;;;;5115719;28;20472;-78
2022/04/24 02:49:27;;;;;;;8.27;6.50;;;7.60;1.00;;;;;;5115539;28;20455;-78
2022/04/24 02:51:54;;;;;;;7.78;6.63;;;7.60;1.00;;;;;;5116186;28;20474;-79
2022/04/24 02:54:20;;;;;;;6.18;5.55;;;7.60;1.00;;;;;;5115805;28;20238;-78
2022/04/24 02:56:47;;;;;;;8.38;6.30;;;7.50;1.00;;;;;;5116633;28;20235;-78
2022/04/24 02:59:15;;;;;;;10.27;7.50;;;7.50;1.00;;;;;;5116387;28;20223;-79
2022/04/24 03:01:41;;;;;;;6.90;6.20;;;7.40;28.40;;;;;;5117566;28;20238;-79
2022/04/24 03:04:09;;;;;;;12.50;7.10;;;7.40;79.10;;;;;;5116905;28;20497;-78
2022/04/24 03:06:36;;;;;;;7.10;6.38;;;7.40;75.70;;;;;;5116167;28;20471;-79
2022/04/24 03:09:03;;;;;;;10.17;6.20;;;7.40;99.90;;;;;;5115685;28;20231;-78
2022/04/24 03:11:29;;;;;;;10.20;7.05;;;7.30;99.90;;;;;;5114603;28;20435;-78
2022/04/24 03:13:56;;;;;;;7.60;6.57;;;7.30;99.90;;;;;;5114373;28;20229;-78
2022/04/24 03:16:22;;;;;;;7.78;6.22;;;7.30;99.90;;;;;;5117818;28;20446;-78
2022/04/24 03:18:50;;;;;;;9.07;7.23;;;7.20;99.90;;;;;;5117832;28;20221;-78
2022/04/24 03:21:18;;;;;;;8.95;6.55;;;7.20;99.90;;;;;;5117600;28;20483;-78
2022/04/24 03:23:44;;;;;;;8.50;6.00;;;7.20;99.90;;;;;;5119283;28;20208;-78
2022/04/24 03:26:13;;;;;;;8.98;7.30;;;7.20;99.90;;;;;;5120820;28;20473;-78
2022/04/24 03:28:42;;;;;;;7.65;6.88;;;7.20;99.90;;;;;;5118805;28;20260;-78
2022/04/24 03:31:09;;;;;;;11.07;7.88;;;7.10;99.90;;;;;;5118853;28;20218;-78
2022/04/24 03:33:35;;;;;;;10.32;7.43;;;7.10;99.90;;;;;;5119014;28;20203;-78
2022/04/24 03:36:02;;;;;;;7.10;6.40;;;7.10;99.90;;;;;;5118974;28;20299;-78
2022/04/24 03:38:30;;;;;;;10.35;6.40;;;7.10;99.90;;;;;;5118880;28;20199;-78
2022/04/24 03:40:57;;;;;;;7.82;6.97;;;7.10;99.90;;;;;;5118316;28;20225;-78
2022/04/24 03:43:23;;;;;;;13.52;6.93;;;7.10;99.90;;;;;;5119472;28;20260;-79
2022/04/24 03:45:50;;;;;;;7.38;6.68;;;7.10;99.90;;;;;;5118533;28;20462;-78
2022/04/24 03:48:16;;;;;;;13.23;7.07;;;7.10;99.90;;;;;;5117586;28;20750;-78
2022/04/24 03:50:43;;;;;;;7.80;6.80;;;6.80;1.00;;;;;;5120212;28;20198;-77
2022/04/24 03:53:10;;;;;;;6.90;6.30;;;7.10;99.90;;;;;;5121302;28;20488;-77
2022/04/24 03:55:38;;;;;;;7.78;6.63;;;7.10;99.90;;;;;;5121317;28;20539;-77
2022/04/24 03:58:04;;;;;;;8.50;6.83;;;7.00;99.90;;;;;;5124535;28;20239;-77
2022/04/24 04:00:31;;;;;;;10.18;6.95;;;7.10;1.00;;;;;;5122409;28;20449;-79
2022/04/24 04:02:57;;;;;;;11.40;7.05;;;7.00;1.00;;;;;;5118516;28;20693;-79
2022/04/24 04:05:24;;;;;;;11.57;7.00;;;7.00;1.00;;;;;;5118419;28;20207;-78
2022/04/24 04:07:51;;;;;;;8.33;7.20;;;7.00;1.00;;;;;;5118472;28;20235;-78
2022/04/24 04:10:17;;;;;;;10.60;7.93;;;7.00;1.00;;;;;;5118529;28;20858;-79
2022/04/24 04:12:45;;;;;;;13.38;6.90;;;7.00;1.00;;;;;;5119340;28;20879;-79
2022/04/24 04:15:12;;;;;;;14.13;8.07;;;7.00;1.00;;;;;;5118019;28;20293;-78
2022/04/24 04:17:39;;;;;;;10.35;7.55;;;7.00;1.00;;;;;;5117714;28;20277;-77
2022/04/24 04:20:11;;;;;;;8.23;7.05;;;6.90;1.00;;;;;;5117618;28;20618;-78
2022/04/24 04:25:32;;;;;;;9.30;7.43;;;7.00;1.00;;;;;;5095694;28;20224;-78
2022/04/24 04:28:19;;;;;;;8.05;6.82;;;7.00;1.00;;;;;;5098196;28;20450;-78
2022/04/24 04:31:01;;;;;;;9.50;7.27;;;6.90;1.00;;;;;;5101036;28;20235;-77
2022/04/24 04:33:42;;;;;;;11.00;7.53;;;7.00;1.00;;;;;;5101672;28;20454;-78
2022/04/24 04:36:21;;;;;;;13.30;7.50;;;7.00;1.00;;;;;;5100511;28;20436;-79
2022/04/24 04:39:11;;;;;;;8.70;7.40;;;7.00;1.00;;;;;;5090043;28;20297;-79
2022/04/24 04:48:06;;;;;;;8.93;7.67;;;6.80;1.00;;;;;;5008154;28;20504;-79
2022/04/24 04:50:42;;;;;;;10.07;8.80;;;7.00;1.00;;;;;;5100132;28;20433;-79
2022/04/24 04:59:44;;;;;;;8.25;7.18;;;7.20;99.90;;;;;;5092521;28;20269;-78
2022/04/24 05:02:24;;;;;;;11.43;6.23;;;7.20;99.90;;;;;;5097872;28;20597;-79
2022/04/24 05:05:11;;;;;;;9.68;8.60;;;7.20;99.90;;;;;;5097134;28;20452;-79
2022/04/24 05:07:47;;;;;;;11.70;7.30;;;7.30;99.90;;;;;;5096631;28;20691;-79
2022/04/24 05:11:01;;;;;;;10.97;8.43;;;8.40;99.90;;;;;;5096575;28;20454;-79
2022/04/24 05:13:51;;;;;;;8.02;7.30;;;;;;;;;;5092201;28;20887;-79
2022/04/24 05:16:32;;;;;;;16.08;7.75;;;7.40;99.90;;;;;;5101755;28;20203;-78
2022/04/24 05:22:39;;;;;;;10.80;8.10;;;7.50;99.90;;;;;;5098074;28;20493;-78
2022/04/24 05:25:47;;;;;;;;;;;;;;;;;;;;;
2022/04/24 05:32:29;;;;;;;17.60;7.70;;;7.70;1.00;;;;;;5097316;28;20473;-79
2022/04/24 05:38:08;;;;;;;10.10;8.03;;;;;;;;;;5096370;28;20447;-78
2022/04/24 05:40:48;;;;;;;8.63;7.80;;;7.80;99.90;;;;;;5097387;28;20452;-78
2022/04/24 05:43:15;;;;;;;8.17;7.37;;;;;;;;;;5097055;28;20810;-78
2022/04/24 05:45:45;;;;;;;14.20;8.57;;;7.90;99.90;;;;;;5094756;28;20534;-78
2022/04/24 05:48:22;;;;;;;9.93;8.03;;;8.00;1.00;;;;;;5095376;28;20814;-78
2022/04/24 05:50:50;;;;;;;10.17;7.77;;;8.00;1.00;;;;;;5096088;28;20486;-78
2022/04/24 05:53:22;;;;;;;12.13;8.33;;;8.10;1.00;;;;;;5097003;28;20421;-78
2022/04/24 05:55:49;;;;;;;9.43;8.20;;;;;;;;;;5096639;28;20443;-78
2022/04/24 05:58:21;;;;;;;10.47;7.80;;;8.20;1.00;;;;;;5097255;28;20436;-79
2022/04/24 06:00:48;;;;;;;10.90;7.50;;;8.30;99.90;;;;;;5097140;28;20444;-78
2022/04/24 06:03:15;;;;;;;10.73;8.10;;;10.20;99.90;;;;;;5097144;28;20448;-79
2022/04/24 06:05:42;;;;;;;7.87;7.07;;;;;;;;;;5096930;28;20909;-79
2022/04/24 06:08:22;;;;;;;8.40;6.87;;;8.40;1.00;;;;;;5096734;28;20471;-79
2022/04/24 06:11:00;;;;;;;8.80;7.70;;;8.30;1.00;;;;;;5096499;28;20460;-80
2022/04/24 06:13:33;;;;;;;9.87;8.00;;;8.10;1.00;;;;;;5096148;28;20927;-79
2022/04/24 06:16:02;;;;;;;10.00;7.77;;;;;;;;;;5096542;28;20518;-79
2022/04/24 06:18:30;;;;;;;16.73;7.63;;;8.40;1.00;;;;;;5096246;28;20496;-79
2022/04/24 06:20:57;;;;;;;8.13;7.43;;;;;;;;;;5096045;28;20434;-78
2022/04/24 06:23:27;;;;;;;8.03;7.23;;;8.70;99.90;;;;;;5097955;28;20448;-79
2022/04/24 06:26:00;;;;;;;10.00;7.50;;;9.10;1.00;;;;;;5101062;28;20452;-79
2022/04/24 06:28:27;;;;;;;11.60;7.20;;;;;;;;;;5099942;28;20840;-79
2022/04/24 06:30:54;;;;;;;9.60;7.60;;;;;;;;;;5095874;28;20475;-79
2022/04/24 06:33:21;;;;;;;8.60;7.23;;;;;;;;;;5095672;28;20447;-79
2022/04/24 06:35:48;;;;;;;12.00;6.97;;;;;;;;;;5095324;28;20518;-79
2022/04/24 06:38:17;;;;;;;10.57;7.13;;;9.20;33.60;;;;;;5096040;28;20569;-79
2022/04/24 06:40:48;;;;;;;8.57;7.33;;;9.30;94.70;;;;;;5096884;28;20448;-79
2022/04/24 06:43:16;;;;;;;8.03;7.23;;;;;;;;;;5108023;28;20455;-78
2022/04/24 06:45:44;;;;;;;7.87;7.07;;;9.50;99.90;;;;;;5108700;28;20453;-78
2022/04/24 06:48:12;;;;;;;12.93;8.70;;;9.80;34.00;;;;;;5107085;28;20448;-78
2022/04/24 06:50:46;;;;;;;8.33;7.40;;;9.70;22.00;;;;;;5104180;28;20419;-76
2022/04/24 06:53:14;;;;;;;13.47;8.70;;;9.80;1.00;;;;;;5102716;28;20791;-77
2022/04/24 06:55:45;;;;;;;8.93;7.63;;;11.30;35.30;;;;;;5100450;28;20490;-78
2022/04/24 07:01:13;;;;;;;16.00;8.00;;;10.10;1.00;;;;;;5111231;28;20451;-79
2022/04/24 07:03:39;;;;;;;8.73;7.77;;;10.40;1.00;;;;;;5103272;28;20420;-79
2022/04/24 07:06:07;;;;;;;9.83;7.23;;;10.40;99.90;;;;;;5097281;28;20487;-78
2022/04/24 07:08:34;;;;;;;9.60;7.67;;;10.30;99.90;;;;;;5100672;28;20950;-78
2022/04/24 07:11:00;;;;;;;8.80;7.20;;;10.40;99.90;;;;;;5101131;28;20994;-78
2022/04/24 07:13:36;;;;;;;10.13;7.57;;;10.50;99.90;;;;;;5102778;28;20444;-78
2022/04/24 07:16:03;;;;;;;9.77;8.17;;;10.70;99.90;;;;;;5098596;28;20442;-77
2022/04/24 07:18:30;;;;;;;9.27;7.57;;;10.90;99.90;;;;;;5101468;28;20455;-79
2022/04/24 07:20:59;;;;;;;8.90;8.03;;;10.90;99.90;;;;;;5098210;28;20464;-78
2022/04/24 07:23:25;;;;;;;9.13;7.07;;;11.10;21.90;;;;;;5096645;28;20475;-78
2022/04/24 07:25:52;;;;;;;7.97;7.17;;;11.20;1.00;;;;;;5095671;28;20447;-78
2022/04/24 07:28:22;;;;;;;12.20;8.17;;;11.30;1.00;;;;;;5098979;28;20459;-80
2022/04/24 07:30:52;;;;;;;10.00;7.10;;;11.20;1.00;;;;;;5100997;28;20514;-79
2022/04/24 07:33:19;;;;;;;8.37;6.90;;;11.30;1.00;;;;;;5098509;28;20796;-80
2022/04/24 07:35:46;;;;;;;10.87;7.50;;;11.60;1.00;;;;;;5100394;28;20474;-80
2022/04/24 07:38:13;;;;;;;8.70;7.80;;;11.70;1.00;;;;;;5099783;28;20474;-80
2022/04/24 07:40:40;;;;;;;7.67;6.83;;;11.30;1.00;;;;;;5098778;28;20443;-79
2022/04/24 07:43:09;;;;;;;8.10;6.73;;;11.60;1.00;;;;;;5099708;28;20476;-80
2022/04/24 07:45:37;;;;;;;8.23;7.43;;;11.70;1.00;;;;;;5098200;28;20484;-80
2022/04/24 07:48:06;;;;;;;8.33;6.33;;;12.00;1.00;;;;;;5098050;28;20533;-80
2022/04/24 07:50:36;;;;;;;11.13;7.10;;;11.90;1.00;;;;;;5099124;28;20502;-80
2022/04/24 07:53:03;;;;;;;6.70;6.00;;;11.80;1.00;;;;;;5095823;28;20463;-79
2022/04/24 07:55:30;;;;;;;7.47;6.80;;;12.00;1.00;;;;;;5095857;28;20497;-79
2022/04/24 07:57:58;;;;;;;8.20;6.07;;;11.90;1.00;;;;;;5095917;28;20444;-79
2022/04/24 08:00:28;;;;;;;7.37;6.60;;;11.90;1.00;;;;;;5096015;28;20465;-80
2022/04/24 08:02:57;;;;;;;8.57;7.50;;;12.30;1.00;;;;;;5095321;28;20483;-80
2022/04/24 08:05:26;;;;;;;6.80;6.20;;;12.20;1.00;;;;;;5096009;28;20465;-79
2022/04/24 08:07:53;;;;;;;7.80;6.47;;;12.40;1.00;;;;;;5096345;28;20797;-79
2022/04/24 08:10:21;;;;;;;8.07;6.10;;;12.70;1.00;;;;;;5100612;28;20448;-79
2022/04/24 08:12:48;;;;;;;5.90;5.30;;;13.00;1.00;;;;;;5105881;28;20509;-79
2022/04/24 08:15:16;;;;;;;6.40;5.80;;;13.30;1.00;;;;;;5104666;28;20785;-78
2022/04/24 08:17:42;;;;;;;7.50;5.50;;;13.20;1.00;;;;;;5107426;28;20444;-79
2022/04/24 08:20:15;;;;;;;7.33;5.87;;;13.00;1.00;;;;;;5105628;28;20447;-79
2022/04/24 08:22:44;;;;;;;6.50;5.40;;;13.00;1.00;;;;;;5105183;28;20571;-78
2022/04/24 08:25:12;;;;;;;6.70;6.03;;;13.10;1.00;;;;;;5104486;28;20444;-78
2022/04/24 08:27:39;;;;;;;7.50;6.23;;;13.10;1.00;;;;;;5101508;28;20476;-79
2022/04/24 08:30:10;;;;;;;7.83;5.90;;;13.20;1.00;;;;;;5099560;28;20447;-80
2022/04/24 08:32:37;;;;;;;6.50;5.33;;;13.40;1.00;;;;;;5099440;28;20467;-79
2022/04/24 08:35:05;;;;;;;5.93;5.40;;;13.40;1.00;;;;;;5104447;28;20471;-79
2022/04/24 08:37:33;;;;;;;9.10;5.90;;;13.40;1.00;;;;;;5106948;28;20443;-79
2022/04/24 08:40:01;;;;;;;7.03;6.17;;;13.60;1.00;;;;;;5107666;28;20455;-79
2022/04/24 08:42:28;;;;;;;5.20;4.77;;;13.60;1.00;;;;;;5103527;28;20510;-79
2022/04/24 08:44:56;;;;;;;8.10;5.70;;;13.80;1.00;;;;;;5101764;28;20433;-78
2022/04/24 08:47:24;;;;;;;7.53;6.10;;;13.80;99.90;;;;;;5100700;28;20463;-78
2022/04/24 08:49:53;;;;;;;6.00;5.40;;;13.80;99.90;;;;;;5099316;28;20449;-79
2022/04/24 08:52:21;;;;;;;7.17;5.40;;;13.80;99.90;;;;;;5099743;28;20498;-79
2022/04/24 08:54:47;;;;;;;6.97;5.83;;;13.70;99.90;;;;;;5100549;28;20915;-79
2022/04/24 08:57:15;;;;;;;6.50;6.00;;;13.80;99.90;;;;;;5099883;28;20493;-79
2022/04/24 08:59:42;;;;;;;9.20;6.77;;;13.90;99.90;;;;;;5099187;28;20527;-79
2022/04/24 09:02:10;;;;;;;6.93;5.77;;;13.80;99.90;;;;;;5099529;28;20549;-79
2022/04/24 09:04:37;;;;;;;7.33;6.63;;;13.90;99.90;;;;;;5099615;28;20532;-80
2022/04/24 09:07:06;;;;;;;5.97;5.47;;;14.00;99.90;;;;;;5101219;28;20445;-78
2022/04/24 09:09:42;;;;;;;7.20;5.47;;;14.10;99.90;;;;;;5100002;28;20464;-79
2022/04/24 09:12:10;;;;;;;6.90;6.20;;;14.20;99.90;;;;;;5102840;28;20486;-79
2022/04/24 09:14:38;;;;;;;8.13;5.70;;;14.10;99.90;;;;;;5108875;28;20445;-78
2022/04/24 09:17:06;;;;;;;7.33;6.63;;;14.10;99.90;;;;;;5102576;28;20445;-80
2022/04/24 09:19:33;;;;;;;9.37;6.47;;;14.10;99.90;;;;;;5110569;28;20458;-77
2022/04/24 09:22:05;;;;;;;10.87;6.47;;;14.30;99.90;;;;;;5114661;28;20446;-76
2022/04/24 09:24:43;;;;;;;8.13;7.07;;;14.40;99.90;;;;;;5115062;28;20505;-79
2022/04/24 09:27:11;;;;;;;11.23;7.73;;;14.50;99.90;;;;;;5105656;28;20484;-77
2022/04/24 09:29:40;;;;;;;8.07;5.88;;;14.60;99.90;;;;;;5102192;28;20432;-77
2022/04/24 09:32:12;;;;;;;9.77;6.60;;;14.70;99.90;;;;;;5101456;28;20220;-78
2022/04/24 09:34:40;;;;;;;8.50;7.43;;;14.80;99.90;;;;;;5100902;28;20502;-76
2022/04/24 09:37:09;;;;;;;14.40;8.30;;;14.80;99.90;;;;;;5100342;28;20450;-78
2022/04/24 09:39:37;;;;;;;7.23;6.53;;;14.80;99.90;;;;;;5101266;28;20500;-78
2022/04/24 09:42:09;;;;;;;9.57;6.70;;;15.00;99.90;;;;;;5100121;28;20517;-78
2022/04/24 09:44:47;;;;;;;7.63;6.80;;;15.00;99.90;;;;;;5099503;28;20435;-78
2022/04/24 09:47:15;;;;;;;7.87;7.17;;;14.90;99.90;;;;;;5100497;28;20426;-78
2022/04/24 09:49:45;;;;;;;10.27;7.43;;;15.00;99.90;;;;;;5105663;28;20442;-77
2022/04/24 09:52:13;;;;;;;10.30;6.87;;;15.10;99.90;;;;;;5105332;28;20444;-78
2022/04/24 09:54:41;;;;;;;7.70;7.10;;;15.10;99.90;;;;;;5102907;28;20448;-77
2022/04/24 09:57:10;;;;;;;8.27;7.37;;;15.20;99.90;;;;;;5103778;28;20454;-78
2022/04/24 09:59:38;;;;;;;7.60;7.00;;;15.30;99.90;;;;;;5102595;28;20500;-77
2022/04/24 10:02:06;;;;;;;10.90;6.97;;;15.30;99.90;;;;;;5104032;28;20467;-77
2022/04/24 10:04:38;;;;;;;7.70;6.90;;;15.30;99.90;;;;;;5102451;28;21059;-78
2022/04/24 10:07:06;;;;;;;6.90;6.30;;;15.30;99.90;;;;;;5098401;28;20524;-78
2022/04/24 10:09:35;;;;;;;9.50;8.33;;;15.30;99.90;;;;;;5099052;28;20476;-78
2022/04/24 10:12:04;;;;;;;7.53;6.93;;;15.40;99.90;;;;;;5097750;28;20463;-78
2022/04/24 10:14:31;;;;;;;8.57;6.70;;;15.30;99.90;;;;;;5097068;28;20432;-77
2022/04/24 10:17:11;;;;;;;7.83;6.93;;;15.30;99.90;;;;;;5097825;28;20870;-78
2022/04/24 10:19:48;;;;;;;7.27;6.57;;;15.40;99.90;;;;;;5097640;28;20835;-77
2022/04/24 10:22:26;;;;;;;8.40;6.57;;;15.70;99.90;;;;;;5098088;28;20466;-78
2022/04/24 10:25:00;;;;;;;12.97;6.67;;;15.80;99.90;;;;;;5097766;28;20486;-78
2022/04/24 10:27:40;;;;;;;6.20;5.70;;;16.00;99.90;;;;;;5100324;28;20768;-79
2022/04/24 10:30:08;;;;;;;7.37;5.20;;;15.90;99.90;;;;;;5101747;28;20537;-79
2022/04/24 10:32:36;;;;;;;6.83;5.53;;;15.80;99.90;;;;;;5100644;28;20986;-79
2022/04/24 10:35:15;;;;;;;6.37;5.03;;;15.90;99.90;;;;;;5099215;28;20563;-79
2022/04/24 10:37:42;;;;;;;6.60;6.00;;;16.10;99.90;;;;;;5100662;28;20427;-78
2022/04/24 10:40:13;;;;;;;5.90;5.47;;;16.10;99.90;;;;;;5101530;28;20459;-78
2022/04/24 10:42:40;;;;;;;7.27;5.70;;;16.10;99.90;;;;;;5100944;28;20851;-78
2022/04/24 10:45:10;;;;;;;5.97;5.17;;;16.40;99.90;;;;;;5103096;28;20476;-79
2022/04/24 10:47:46;;;;;;;6.43;5.83;;;16.60;99.90;;;;;;5099897;28;20481;-79
2022/04/24 10:50:14;;;;;;;4.80;4.40;;;16.40;99.90;;;;;;5101425;28;20444;-80
2022/04/24 10:52:43;;;;;;;5.73;5.23;;;16.20;99.90;;;;;;5101653;28;20486;-78
2022/04/24 10:55:13;;;;;;;7.10;5.30;;;16.00;99.90;;;;;;5102105;28;20443;-79
2022/04/24 10:57:43;;;;;;;5.90;5.40;;;16.00;99.90;;;;;;5101184;28;20448;-80
2022/04/24 11:00:19;;;;;;;6.23;4.87;;;16.10;99.90;;;;;;5101255;28;20938;-79
2022/04/24 11:02:47;;;;;;;5.80;5.20;;;16.40;99.90;;;;;;5103441;28;21055;-79
2022/04/24 11:05:21;;;;;;;6.77;5.30;;;16.50;99.90;;;;;;5103386;28;20482;-79
2022/04/24 11:07:48;;;;;;;5.87;4.60;;;16.30;1.00;;;;;;5103928;28;20432;-79
2022/04/24 11:10:20;;;;;;;5.77;5.20;;;16.50;99.90;;;;;;5100456;28;20440;-78
2022/04/24 11:12:48;;;;;;;6.33;5.23;;;16.40;99.90;;;;;;5101172;28;20502;-78
2022/04/24 11:15:16;;;;;;;5.00;4.60;;;16.40;99.90;;;;;;5100348;28;20490;-79
2022/04/24 11:17:43;;;;;;;6.23;4.60;;;16.30;99.90;;;;;;5100701;28;20521;-79
2022/04/24 11:20:14;;;;;;;6.10;4.77;;;16.20;99.90;;;;;;5102093;28;20440;-79
2022/04/24 11:22:52;;;;;;;5.63;5.00;;;16.30;99.90;;;;;;5101347;28;20495;-79
2022/04/24 11:25:20;;;;;;;4.70;4.30;;;16.30;99.90;;;;;;5102453;28;20455;-79
2022/04/24 11:27:51;;;;;;;6.03;5.43;;;16.30;99.90;;;;;;5102482;28;20436;-79
2022/04/24 11:30:19;;;;;;;4.93;4.53;;;16.30;99.90;;;;;;5098711;28;20435;-78
2022/04/24 11:32:57;;;;;;;5.20;4.80;;;16.30;99.90;;;;;;5097283;28;20587;-79
2022/04/24 11:35:27;;;;;;;6.23;5.17;;;16.10;99.90;;;;;;5097815;28;20493;-79
2022/04/24 11:37:55;;;;;;;4.60;4.20;;;15.90;99.90;;;;;;5099487;28;20846;-78
2022/04/24 11:40:21;;;;;;;4.80;4.40;;;16.10;99.90;;;;;;5099577;28;20454;-79
2022/04/24 11:42:48;;;;;;;5.40;4.80;;;16.20;99.90;;;;;;5097585;28;20468;-78
2022/04/24 11:50:51;;;;;;;4.67;4.10;;;16.50;99.90;;;;;;5099297;28;20513;-78
2022/04/24 11:53:20;;;;;;;6.67;5.60;;;16.60;99.90;;;;;;5102451;28;20528;-80
2022/04/24 11:56:05;;;;;;;5.90;5.00;;;16.50;99.90;;;;;;5098905;28;20440;-79
2022/04/24 11:58:35;;;;;;;9.67;3.97;;;16.60;99.90;;;;;;5099750;28;20428;-79
2022/04/24 12:01:04;;;;;;;4.90;4.50;;;16.90;99.90;;;;;;5099048;28;20467;-79
2022/04/24 12:03:33;;;;;;;4.70;4.30;;;16.70;99.90;;;;;;5099662;28;20471;-79
2022/04/24 12:06:03;;;;;;;5.83;4.70;;;16.80;99.90;;;;;;5099035;28;20448;-80
2022/04/24 12:08:43;;;;;;;5.13;4.67;;;16.60;99.90;;;;;;5102013;28;20424;-78
2022/04/24 12:11:10;;;;;;;6.17;4.23;;;16.40;99.90;;;;;;5100670;28;20550;-78
2022/04/24 12:13:38;;;;;;;4.60;4.23;;;16.40;99.90;;;;;;5098592;28;20478;-79
2022/04/24 12:16:05;;;;;;;5.10;4.63;;;16.40;99.90;;;;;;5099252;28;20501;-80
2022/04/24 12:18:32;;;;;;;5.60;3.73;;;;;;;;;;5099439;28;20447;-79
2022/04/24 12:20:58;;;;;;;4.57;4.17;;;16.80;99.90;;;;;;5098599;28;20460;-79
2022/04/24 12:23:28;;;;;;;4.43;3.20;;;17.00;99.90;;;;;;5098944;28;20946;-79
2022/04/24 12:25:58;;;;;;;3.67;3.47;;;16.70;99.90;;;;;;5099534;28;20546;-78
2022/04/24 12:28:31;;;;;;;5.30;4.80;;;16.70;99.90;;;;;;5099312;28;20538;-79
2022/04/24 12:30:58;;;;;;;6.10;4.40;;;16.90;99.90;;;;;;5099103;28;20498;-78
2022/04/24 12:33:25;;;;;;;4.83;4.47;;;17.30;99.90;;;;;;5100453;28;20475;-79
2022/04/24 12:35:51;;;;;;;6.00;4.57;;;17.00;99.90;;;;;;5102433;28;20471;-79
2022/04/24 12:38:20;;;;;;;4.50;4.10;;;16.80;99.90;;;;;;5103984;28;20531;-80
2022/04/24 12:40:57;;;;;;;5.93;4.23;;;16.80;99.90;;;;;;5098282;28;20472;-79
2022/04/24 12:43:26;;;;;;;4.30;3.87;;;17.00;99.90;;;;;;5097650;28;20490;-78
2022/04/24 12:45:53;;;;;;;8.03;4.70;;;17.20;1.00;;;;;;5099499;28;20463;-78
2022/04/24 12:48:20;;;;;;;5.10;4.20;;;17.10;99.90;;;;;;5099779;28;20502;-78
2022/04/24 12:50:48;;;;;;;5.13;4.73;;;17.10;99.90;;;;;;5101098;28;20499;-80
2022/04/24 12:53:15;;;;;;;4.40;4.00;;;17.00;99.90;;;;;;5100593;28;20539;-79
2022/04/24 12:55:42;;;;;;;4.47;4.10;;;17.40;99.90;;;;;;5102327;28;20448;-80
2022/04/24 12:58:14;;;;;;;4.50;3.97;;;17.40;99.90;;;;;;5101842;28;20869;-80
2022/04/24 13:00:41;;;;;;;3.77;3.47;;;18.00;99.90;;;;;;5113436;28;20433;-78
2022/04/24 13:03:08;;;;;;;5.10;4.00;;;17.70;99.90;;;;;;5114177;28;20923;-79
2022/04/24 13:05:37;;;;;;;5.93;3.40;;;17.90;99.90;;;;;;5112318;28;20466;-78
2022/04/24 13:08:05;;;;;;;5.25;3.00;;;17.50;99.90;;;;;;5112460;28;20472;-79
2022/04/24 13:10:32;;;;;;;6.70;3.90;;;17.40;99.90;;;;;;5113030;28;20208;-79
2022/04/24 13:13:01;;;;;;;3.67;3.37;;;17.00;99.90;;;;;;5107438;28;20459;-79
2022/04/24 13:15:33;;;;;;;4.87;4.47;;;16.90;99.90;;;;;;5107681;28;20444;-80
2022/04/24 13:18:09;;;;;;;5.50;4.47;;;17.00;99.90;;;;;;5101882;28;20543;-79
2022/04/24 13:20:38;;;;;;;4.73;4.33;;;17.00;99.90;;;;;;5099875;28;20424;-78
2022/04/24 13:23:06;;;;;;;4.93;4.07;;;16.90;99.90;;;;;;5098671;28;20565;-78
2022/04/24 13:25:33;;;;;;;3.83;3.43;;;17.20;99.90;;;;;;5103289;28;20818;-80
2022/04/24 13:28:00;;;;;;;4.00;3.50;;;17.30;99.90;;;;;;5097888;28;20522;-77
2022/04/24 13:30:26;;;;;;;4.90;3.97;;;16.10;99.90;;;;;;5095427;28;20535;-75
2022/04/24 13:32:54;;;;;;;6.67;4.00;;;16.80;99.90;;;;;;5096303;28;20825;-77
2022/04/24 13:35:21;;;;;;;4.10;3.80;;;17.20;99.90;;;;;;5095907;28;20448;-76
2022/04/24 13:40:31;;;;;;;5.10;4.70;;;17.30;99.90;;;;;;5095847;28;20492;-76
2022/04/24 13:42:58;;;;;;;17.93;5.67;;;17.30;99.90;;;;;;5095126;28;20498;-75
2022/04/24 13:45:25;;;;;;;4.70;4.27;;;17.70;99.90;;;;;;5094923;28;20507;-76
2022/04/24 13:47:54;;;;;;;4.17;3.80;;;17.40;99.90;;;;;;5095180;28;20527;-75
2022/04/24 13:50:21;;;;;;;3.90;3.50;;;17.30;99.90;;;;;;5095405;28;20495;-76
2022/04/24 13:52:48;;;;;;;4.23;3.83;;;17.20;99.90;;;;;;5094890;28;21021;-75